sensor_id;sensor_type;location;lat;lon;timestamp;temperature;humidity
7606;DHT22;3844;53.360;9.738;2023-03-25T00:00:24;7.70;95.70
7606;DHT22;3844;53.360;9.738;2023-03-25T00:04:29;7.70;95.70
7606;DHT22;3844;53.360;9.738;2023-03-25T00:06:31;7.70;95.70
7606;DHT22;3844;53.360;9.738;2023-03-25T00:08:35;7.70;95.70
7606;DHT22;3844;53.360;9.738;2023-03-25T00:12:37;7.70;95.70
7606;DHT22;3844;53.360;9.738;2023-03-25T00:14:38;7.70;95.70
7606;DHT22;3844;53.360;9.738;2023-03-25T00:16:39;7.70;95.70
7606;DHT22;3844;53.360;9.738;2023-03-25T00:18:40;7.70;95.70
7606;DHT22;3844;53.360;9.738;2023-03-25T00:22:45;7.70;95.70
7606;DHT22;3844;53.360;9.738;2023-03-25T00:24:45;7.70;95.70
7606;DHT22;3844;53.360;9.738;2023-03-25T00:26:46;7.70;95.70
7606;DHT22;3844;53.360;9.738;2023-03-25T00:28:48;7.80;95.70
7606;DHT22;3844;53.360;9.738;2023-03-25T00:30:48;7.80;95.70
7606;DHT22;3844;53.360;9.738;2023-03-25T00:32:51;7.80;95.70
7606;DHT22;3844;53.360;9.738;2023-03-25T00:34:52;7.90;95.70
7606;DHT22;3844;53.360;9.738;2023-03-25T00:36:53;7.90;95.70
7606;DHT22;3844;53.360;9.738;2023-03-25T00:38:53;8.00;95.70
7606;DHT22;3844;53.360;9.738;2023-03-25T00:40:54;8.00;95.70
7606;DHT22;3844;53.360;9.738;2023-03-25T00:42:55;8.10;95.70
7606;DHT22;3844;53.360;9.738;2023-03-25T00:44:56;8.10;95.70
7606;DHT22;3844;53.360;9.738;2023-03-25T00:46:57;8.20;95.70
7606;DHT22;3844;53.360;9.738;2023-03-25T00:48:58;8.20;95.70
7606;DHT22;3844;53.360;9.738;2023-03-25T00:50:59;8.30;95.70
7606;DHT22;3844;53.360;9.738;2023-03-25T00:53:06;8.30;95.70
7606;DHT22;3844;53.360;9.738;2023-03-25T00:55:08;8.40;95.70
7606;DHT22;3844;53.360;9.738;2023-03-25T00:57:08;8.40;95.70
7606;DHT22;3844;53.360;9.738;2023-03-25T00:59:09;8.40;95.70
7606;DHT22;3844;53.360;9.738;2023-03-25T01:01:13;8.40;95.70
7606;DHT22;3844;53.360;9.738;2023-03-25T01:03:14;8.40;95.70
7606;DHT22;3844;53.360;9.738;2023-03-25T01:05:14;8.40;95.70
7606;DHT22;3844;53.360;9.738;2023-03-25T01:07:19;8.40;95.70
7606;DHT22;3844;53.360;9.738;2023-03-25T01:09:20;8.40;95.70
7606;DHT22;3844;53.360;9.738;2023-03-25T01:11:24;8.40;95.70
7606;DHT22;3844;53.360;9.738;2023-03-25T01:13:25;8.40;95.70
7606;DHT22;3844;53.360;9.738;2023-03-25T01:15:26;8.30;95.70
7606;DHT22;3844;53.360;9.738;2023-03-25T01:17:26;8.30;95.70
7606;DHT22;3844;53.360;9.738;2023-03-25T01:19:27;8.30;95.70
7606;DHT22;3844;53.360;9.738;2023-03-25T01:23:29;8.30;95.70
7606;DHT22;3844;53.360;9.738;2023-03-25T01:25:30;8.20;95.70
7606;DHT22;3844;53.360;9.738;2023-03-25T01:27:30;8.20;95.70
7606;DHT22;3844;53.360;9.738;2023-03-25T01:29:31;8.10;95.70
7606;DHT22;3844;53.360;9.738;2023-03-25T01:31:32;8.10;95.70
7606;DHT22;3844;53.360;9.738;2023-03-25T01:33:33;8.10;95.70
7606;DHT22;3844;53.360;9.738;2023-03-25T01:35:34;8.10;95.70
7606;DHT22;3844;53.360;9.738;2023-03-25T01:37:35;8.10;95.70
7606;DHT22;3844;53.360;9.738;2023-03-25T01:41:39;8.10;95.70
7606;DHT22;3844;53.360;9.738;2023-03-25T01:43:39;8.20;95.70
7606;DHT22;3844;53.360;9.738;2023-03-25T01:45:41;8.20;95.70
7606;DHT22;3844;53.360;9.738;2023-03-25T01:47:42;8.20;95.70
7606;DHT22;3844;53.360;9.738;2023-03-25T01:49:45;8.30;95.70
7606;DHT22;3844;53.360;9.738;2023-03-25T01:51:48;8.30;95.70
7606;DHT22;3844;53.360;9.738;2023-03-25T01:53:51;8.30;95.70
7606;DHT22;3844;53.360;9.738;2023-03-25T01:55:55;8.30;95.70
7606;DHT22;3844;53.360;9.738;2023-03-25T01:57:57;8.30;95.70
7606;DHT22;3844;53.360;9.738;2023-03-25T01:59:59;8.40;95.70
7606;DHT22;3844;53.360;9.738;2023-03-25T02:02:02;8.40;95.70
7606;DHT22;3844;53.360;9.738;2023-03-25T02:04:03;8.40;95.70
7606;DHT22;3844;53.360;9.738;2023-03-25T02:06:21;8.40;95.70
7606;DHT22;3844;53.360;9.738;2023-03-25T02:08:25;8.50;95.70
7606;DHT22;3844;53.360;9.738;2023-03-25T02:10:26;8.50;95.70
7606;DHT22;3844;53.360;9.738;2023-03-25T02:12:27;8.40;95.70
7606;DHT22;3844;53.360;9.738;2023-03-25T02:14:31;8.40;95.70
7606;DHT22;3844;53.360;9.738;2023-03-25T02:17:02;8.40;95.70
7606;DHT22;3844;53.360;9.738;2023-03-25T02:21:39;8.40;95.70
7606;DHT22;3844;53.360;9.738;2023-03-25T02:26:26;8.40;95.70
7606;DHT22;3844;53.360;9.738;2023-03-25T02:28:42;8.40;95.70
7606;DHT22;3844;53.360;9.738;2023-03-25T02:31:06;8.40;95.70
7606;DHT22;3844;53.360;9.738;2023-03-25T02:40:38;8.50;95.70
7606;DHT22;3844;53.360;9.738;2023-03-25T02:46:57;8.60;95.70
7606;DHT22;3844;53.360;9.738;2023-03-25T02:49:14;8.60;95.70
7606;DHT22;3844;53.360;9.738;2023-03-25T02:51:21;8.60;95.70
7606;DHT22;3844;53.360;9.738;2023-03-25T02:53:29;8.60;95.70
7606;DHT22;3844;53.360;9.738;2023-03-25T02:55:33;8.60;95.70
7606;DHT22;3844;53.360;9.738;2023-03-25T02:57:37;8.60;95.70
7606;DHT22;3844;53.360;9.738;2023-03-25T02:59:39;8.60;95.70
7606;DHT22;3844;53.360;9.738;2023-03-25T03:01:41;8.60;95.70
7606;DHT22;3844;53.360;9.738;2023-03-25T03:03:42;8.60;95.70
7606;DHT22;3844;53.360;9.738;2023-03-25T03:05:45;8.60;95.70
7606;DHT22;3844;53.360;9.738;2023-03-25T03:10:10;8.60;95.70
7606;DHT22;3844;53.360;9.738;2023-03-25T03:20:54;8.50;95.70
7606;DHT22;3844;53.360;9.738;2023-03-25T03:23:04;8.50;95.70
7606;DHT22;3844;53.360;9.738;2023-03-25T03:25:21;8.50;95.70
7606;DHT22;3844;53.360;9.738;2023-03-25T03:28:00;8.50;95.70
7606;DHT22;3844;53.360;9.738;2023-03-25T03:32:35;8.40;95.70
7606;DHT22;3844;53.360;9.738;2023-03-25T03:35:12;8.50;95.70
7606;DHT22;3844;53.360;9.738;2023-03-25T03:37:06;8.50;95.70
7606;DHT22;3844;53.360;9.738;2023-03-25T03:39:40;8.50;95.70
7606;DHT22;3844;53.360;9.738;2023-03-25T03:41:42;8.50;95.70
7606;DHT22;3844;53.360;9.738;2023-03-25T03:44:07;8.50;95.70
7606;DHT22;3844;53.360;9.738;2023-03-25T03:46:14;8.50;95.70
7606;DHT22;3844;53.360;9.738;2023-03-25T03:48:27;8.50;95.70
7606;DHT22;3844;53.360;9.738;2023-03-25T03:50:31;8.40;95.70
7606;DHT22;3844;53.360;9.738;2023-03-25T03:52:41;8.40;95.70
7606;DHT22;3844;53.360;9.738;2023-03-25T03:55:02;8.40;95.70
7606;DHT22;3844;53.360;9.738;2023-03-25T03:57:10;8.30;95.70
7606;DHT22;3844;53.360;9.738;2023-03-25T03:59:22;8.30;95.70
7606;DHT22;3844;53.360;9.738;2023-03-25T04:01:41;8.40;95.70
7606;DHT22;3844;53.360;9.738;2023-03-25T04:03:50;8.40;95.70
7606;DHT22;3844;53.360;9.738;2023-03-25T04:05:58;8.40;95.70
7606;DHT22;3844;53.360;9.738;2023-03-25T04:08:03;8.40;95.70
7606;DHT22;3844;53.360;9.738;2023-03-25T04:10:20;8.40;95.70
7606;DHT22;3844;53.360;9.738;2023-03-25T04:12:27;8.40;95.70
7606;DHT22;3844;53.360;9.738;2023-03-25T04:14:28;8.40;95.70
7606;DHT22;3844;53.360;9.738;2023-03-25T04:16:29;8.40;95.70
7606;DHT22;3844;53.360;9.738;2023-03-25T04:18:31;8.40;95.70
7606;DHT22;3844;53.360;9.738;2023-03-25T04:20:34;8.40;95.70
7606;DHT22;3844;53.360;9.738;2023-03-25T04:22:36;8.40;95.70
7606;DHT22;3844;53.360;9.738;2023-03-25T04:24:45;8.50;95.70
7606;DHT22;3844;53.360;9.738;2023-03-25T04:26:49;8.50;95.70
7606;DHT22;3844;53.360;9.738;2023-03-25T04:28:52;8.50;95.70
7606;DHT22;3844;53.360;9.738;2023-03-25T04:30:53;8.50;95.70
7606;DHT22;3844;53.360;9.738;2023-03-25T04:32:55;8.60;95.70
7606;DHT22;3844;53.360;9.738;2023-03-25T04:34:56;8.60;95.70
7606;DHT22;3844;53.360;9.738;2023-03-25T04:36:57;8.50;95.70
7606;DHT22;3844;53.360;9.738;2023-03-25T04:38:58;8.50;95.70
7606;DHT22;3844;53.360;9.738;2023-03-25T04:40:59;8.50;95.70
7606;DHT22;3844;53.360;9.738;2023-03-25T04:43:00;8.60;95.70
7606;DHT22;3844;53.360;9.738;2023-03-25T04:45:01;8.50;95.70
7606;DHT22;3844;53.360;9.738;2023-03-25T04:47:02;8.60;95.70
7606;DHT22;3844;53.360;9.738;2023-03-25T04:49:04;8.60;95.70
7606;DHT22;3844;53.360;9.738;2023-03-25T04:51:13;8.60;95.70
7606;DHT22;3844;53.360;9.738;2023-03-25T04:53:15;8.60;95.70
7606;DHT22;3844;53.360;9.738;2023-03-25T04:55:16;8.70;95.70
7606;DHT22;3844;53.360;9.738;2023-03-25T04:57:19;8.70;95.70
7606;DHT22;3844;53.360;9.738;2023-03-25T04:59:20;8.60;95.70
7606;DHT22;3844;53.360;9.738;2023-03-25T05:01:27;8.60;95.70
7606;DHT22;3844;53.360;9.738;2023-03-25T05:03:31;8.60;95.70
7606;DHT22;3844;53.360;9.738;2023-03-25T05:05:32;8.60;95.70
7606;DHT22;3844;53.360;9.738;2023-03-25T05:07:33;8.60;95.70
7606;DHT22;3844;53.360;9.738;2023-03-25T05:09:34;8.50;95.70
7606;DHT22;3844;53.360;9.738;2023-03-25T05:11:35;8.50;95.70
7606;DHT22;3844;53.360;9.738;2023-03-25T05:13:36;8.50;95.70
7606;DHT22;3844;53.360;9.738;2023-03-25T05:15:37;8.50;95.70
7606;DHT22;3844;53.360;9.738;2023-03-25T05:17:41;8.50;95.70
7606;DHT22;3844;53.360;9.738;2023-03-25T05:19:43;8.50;95.70
7606;DHT22;3844;53.360;9.738;2023-03-25T05:21:44;8.50;95.70
7606;DHT22;3844;53.360;9.738;2023-03-25T05:23:44;8.40;95.70
7606;DHT22;3844;53.360;9.738;2023-03-25T05:25:47;8.40;95.70
7606;DHT22;3844;53.360;9.738;2023-03-25T05:27:48;8.40;95.70
7606;DHT22;3844;53.360;9.738;2023-03-25T05:29:49;8.40;95.70
7606;DHT22;3844;53.360;9.738;2023-03-25T05:31:49;8.40;95.70
7606;DHT22;3844;53.360;9.738;2023-03-25T05:35:51;8.30;95.70
7606;DHT22;3844;53.360;9.738;2023-03-25T05:37:52;8.20;95.70
7606;DHT22;3844;53.360;9.738;2023-03-25T05:39:53;8.20;95.70
7606;DHT22;3844;53.360;9.738;2023-03-25T05:41:53;8.20;95.70
7606;DHT22;3844;53.360;9.738;2023-03-25T05:43:55;8.20;95.70
7606;DHT22;3844;53.360;9.738;2023-03-25T05:45:55;8.10;95.70
7606;DHT22;3844;53.360;9.738;2023-03-25T05:47:56;8.10;95.70
7606;DHT22;3844;53.360;9.738;2023-03-25T05:49:58;8.10;95.70
7606;DHT22;3844;53.360;9.738;2023-03-25T05:54:01;8.10;95.70
7606;DHT22;3844;53.360;9.738;2023-03-25T05:56:01;8.10;95.70
7606;DHT22;3844;53.360;9.738;2023-03-25T05:58:02;8.10;95.70
7606;DHT22;3844;53.360;9.738;2023-03-25T06:00:04;8.10;95.70
7606;DHT22;3844;53.360;9.738;2023-03-25T06:02:08;8.10;95.70
7606;DHT22;3844;53.360;9.738;2023-03-25T06:04:11;8.20;95.70
7606;DHT22;3844;53.360;9.738;2023-03-25T06:06:13;8.20;95.70
7606;DHT22;3844;53.360;9.738;2023-03-25T06:08:18;8.20;95.70
7606;DHT22;3844;53.360;9.738;2023-03-25T06:10:25;8.20;95.70
7606;DHT22;3844;53.360;9.738;2023-03-25T06:12:26;8.20;95.70
7606;DHT22;3844;53.360;9.738;2023-03-25T06:14:26;8.20;95.70
7606;DHT22;3844;53.360;9.738;2023-03-25T06:16:27;8.20;95.70
7606;DHT22;3844;53.360;9.738;2023-03-25T06:18:28;8.20;95.70
7606;DHT22;3844;53.360;9.738;2023-03-25T06:20:29;8.20;95.70
7606;DHT22;3844;53.360;9.738;2023-03-25T06:22:30;8.20;95.70
7606;DHT22;3844;53.360;9.738;2023-03-25T06:24:36;8.20;95.70
7606;DHT22;3844;53.360;9.738;2023-03-25T06:26:37;8.20;95.70
7606;DHT22;3844;53.360;9.738;2023-03-25T06:30:39;8.30;95.70
7606;DHT22;3844;53.360;9.738;2023-03-25T06:34:40;8.40;95.70
7606;DHT22;3844;53.360;9.738;2023-03-25T06:36:41;8.50;95.70
7606;DHT22;3844;53.360;9.738;2023-03-25T06:38:42;8.50;95.70
7606;DHT22;3844;53.360;9.738;2023-03-25T06:40:43;8.60;95.70
7606;DHT22;3844;53.360;9.738;2023-03-25T06:42:44;8.70;95.70
7606;DHT22;3844;53.360;9.738;2023-03-25T06:44:45;8.80;95.70
7606;DHT22;3844;53.360;9.738;2023-03-25T06:46:46;8.80;95.70
7606;DHT22;3844;53.360;9.738;2023-03-25T06:48:47;8.90;95.70
7606;DHT22;3844;53.360;9.738;2023-03-25T06:50:48;8.80;95.70
7606;DHT22;3844;53.360;9.738;2023-03-25T06:52:49;8.80;95.70
7606;DHT22;3844;53.360;9.738;2023-03-25T06:54:49;8.80;95.70
7606;DHT22;3844;53.360;9.738;2023-03-25T06:58:51;8.90;95.70
7606;DHT22;3844;53.360;9.738;2023-03-25T07:00:53;8.90;95.70
7606;DHT22;3844;53.360;9.738;2023-03-25T07:02:54;9.00;95.70
7606;DHT22;3844;53.360;9.738;2023-03-25T07:04:54;9.00;95.70
7606;DHT22;3844;53.360;9.738;2023-03-25T07:06:55;9.00;95.70
7606;DHT22;3844;53.360;9.738;2023-03-25T07:08:56;9.00;95.70
7606;DHT22;3844;53.360;9.738;2023-03-25T07:11:05;9.00;95.70
7606;DHT22;3844;53.360;9.738;2023-03-25T07:13:08;9.00;95.70
7606;DHT22;3844;53.360;9.738;2023-03-25T07:15:09;9.00;95.70
7606;DHT22;3844;53.360;9.738;2023-03-25T07:17:10;9.00;95.70
7606;DHT22;3844;53.360;9.738;2023-03-25T07:19:11;9.00;95.70
7606;DHT22;3844;53.360;9.738;2023-03-25T07:23:13;9.00;95.70
7606;DHT22;3844;53.360;9.738;2023-03-25T07:25:14;9.00;95.70
7606;DHT22;3844;53.360;9.738;2023-03-25T07:27:15;9.00;95.70
7606;DHT22;3844;53.360;9.738;2023-03-25T07:29:15;9.00;95.70
7606;DHT22;3844;53.360;9.738;2023-03-25T07:31:16;9.00;95.70
7606;DHT22;3844;53.360;9.738;2023-03-25T07:33:17;9.00;95.70
7606;DHT22;3844;53.360;9.738;2023-03-25T07:35:17;9.10;95.70
7606;DHT22;3844;53.360;9.738;2023-03-25T07:37:18;9.20;95.70
7606;DHT22;3844;53.360;9.738;2023-03-25T07:39:19;9.30;95.70
7606;DHT22;3844;53.360;9.738;2023-03-25T07:41:21;9.40;95.70
7606;DHT22;3844;53.360;9.738;2023-03-25T07:43:21;9.50;95.70
7606;DHT22;3844;53.360;9.738;2023-03-25T07:45:22;9.40;95.70
7606;DHT22;3844;53.360;9.738;2023-03-25T07:47:23;9.40;95.70
7606;DHT22;3844;53.360;9.738;2023-03-25T07:51:24;9.40;95.70
7606;DHT22;3844;53.360;9.738;2023-03-25T07:53:25;9.40;95.70
7606;DHT22;3844;53.360;9.738;2023-03-25T07:55:26;9.50;95.70
7606;DHT22;3844;53.360;9.738;2023-03-25T07:57:27;9.50;95.70
7606;DHT22;3844;53.360;9.738;2023-03-25T07:59:28;9.60;95.70
7606;DHT22;3844;53.360;9.738;2023-03-25T08:01:28;9.50;95.70
7606;DHT22;3844;53.360;9.738;2023-03-25T08:03:29;9.60;95.70
7606;DHT22;3844;53.360;9.738;2023-03-25T08:07:34;9.70;95.70
7606;DHT22;3844;53.360;9.738;2023-03-25T08:09:35;9.80;95.70
7606;DHT22;3844;53.360;9.738;2023-03-25T08:11:35;9.90;95.70
7606;DHT22;3844;53.360;9.738;2023-03-25T08:13:36;10.00;95.70
7606;DHT22;3844;53.360;9.738;2023-03-25T08:15:37;10.10;95.70
7606;DHT22;3844;53.360;9.738;2023-03-25T08:17:38;10.30;95.70
7606;DHT22;3844;53.360;9.738;2023-03-25T08:19:39;10.40;92.10
7606;DHT22;3844;53.360;9.738;2023-03-25T08:21:40;10.30;92.40
7606;DHT22;3844;53.360;9.738;2023-03-25T08:23:41;10.20;92.60
7606;DHT22;3844;53.360;9.738;2023-03-25T08:25:45;10.10;93.40
7606;DHT22;3844;53.360;9.738;2023-03-25T08:27:48;10.10;92.40
7606;DHT22;3844;53.360;9.738;2023-03-25T08:29:49;10.10;93.10
7606;DHT22;3844;53.360;9.738;2023-03-25T08:31:56;10.10;92.90
7606;DHT22;3844;53.360;9.738;2023-03-25T08:33:58;10.10;93.60
7606;DHT22;3844;53.360;9.738;2023-03-25T08:36:00;10.10;94.10
7606;DHT22;3844;53.360;9.738;2023-03-25T08:38:01;10.00;95.50
7606;DHT22;3844;53.360;9.738;2023-03-25T08:40:05;9.80;95.70
7606;DHT22;3844;53.360;9.738;2023-03-25T08:42:08;9.90;95.70
7606;DHT22;3844;53.360;9.738;2023-03-25T08:44:09;9.70;95.70
7606;DHT22;3844;53.360;9.738;2023-03-25T08:46:11;9.60;95.70
7606;DHT22;3844;53.360;9.738;2023-03-25T08:48:20;9.60;95.70
7606;DHT22;3844;53.360;9.738;2023-03-25T08:50:25;9.60;95.70
7606;DHT22;3844;53.360;9.738;2023-03-25T08:52:26;9.60;95.70
7606;DHT22;3844;53.360;9.738;2023-03-25T08:54:27;9.60;95.70
7606;DHT22;3844;53.360;9.738;2023-03-25T08:56:29;9.80;95.70
7606;DHT22;3844;53.360;9.738;2023-03-25T08:58:30;9.90;95.70
7606;DHT22;3844;53.360;9.738;2023-03-25T09:00:31;9.90;95.70
7606;DHT22;3844;53.360;9.738;2023-03-25T09:02:31;9.90;95.70
7606;DHT22;3844;53.360;9.738;2023-03-25T09:04:32;9.80;95.70
7606;DHT22;3844;53.360;9.738;2023-03-25T09:06:33;9.80;95.70
7606;DHT22;3844;53.360;9.738;2023-03-25T09:08:34;9.70;95.70
7606;DHT22;3844;53.360;9.738;2023-03-25T09:10:36;9.70;95.70
7606;DHT22;3844;53.360;9.738;2023-03-25T09:12:37;9.50;95.70
7606;DHT22;3844;53.360;9.738;2023-03-25T09:14:38;9.40;95.70
7606;DHT22;3844;53.360;9.738;2023-03-25T09:16:40;9.30;95.70
7606;DHT22;3844;53.360;9.738;2023-03-25T09:18:40;9.20;95.70
7606;DHT22;3844;53.360;9.738;2023-03-25T09:20:41;9.10;95.70
7606;DHT22;3844;53.360;9.738;2023-03-25T09:22:42;9.10;95.70
7606;DHT22;3844;53.360;9.738;2023-03-25T09:24:44;9.00;95.70
7606;DHT22;3844;53.360;9.738;2023-03-25T09:26:45;8.90;95.70
7606;DHT22;3844;53.360;9.738;2023-03-25T09:28:46;8.80;95.70
7606;DHT22;3844;53.360;9.738;2023-03-25T09:30:47;8.80;95.70
7606;DHT22;3844;53.360;9.738;2023-03-25T09:32:48;8.70;95.70
7606;DHT22;3844;53.360;9.738;2023-03-25T09:34:49;8.70;95.70
7606;DHT22;3844;53.360;9.738;2023-03-25T09:36:50;8.60;95.70
7606;DHT22;3844;53.360;9.738;2023-03-25T09:38:51;8.60;95.70
7606;DHT22;3844;53.360;9.738;2023-03-25T09:40:52;8.60;95.70
7606;DHT22;3844;53.360;9.738;2023-03-25T09:47:34;9.20;95.70
7606;DHT22;3844;53.360;9.738;2023-03-25T09:49:44;9.50;95.70
7606;DHT22;3844;53.360;9.738;2023-03-25T09:51:47;9.80;95.70
7606;DHT22;3844;53.360;9.738;2023-03-25T09:55:54;11.30;93.50
7606;DHT22;3844;53.360;9.738;2023-03-25T09:58:01;11.80;88.60
7606;DHT22;3844;53.360;9.738;2023-03-25T10:00:05;12.40;86.00
7606;DHT22;3844;53.360;9.738;2023-03-25T10:14:11;14.40;77.20
7606;DHT22;3844;53.360;9.738;2023-03-25T10:23:15;13.40;78.70
7606;DHT22;3844;53.360;9.738;2023-03-25T10:25:21;13.00;80.80
7606;DHT22;3844;53.360;9.738;2023-03-25T10:27:38;12.80;81.70
7606;DHT22;3844;53.360;9.738;2023-03-25T10:32:17;12.60;81.30
7606;DHT22;3844;53.360;9.738;2023-03-25T10:34:26;12.50;82.70
7606;DHT22;3844;53.360;9.738;2023-03-25T10:36:35;12.60;82.60
7606;DHT22;3844;53.360;9.738;2023-03-25T10:38:37;12.60;82.70
7606;DHT22;3844;53.360;9.738;2023-03-25T10:40:42;12.60;82.70
7606;DHT22;3844;53.360;9.738;2023-03-25T10:45:00;12.20;80.40
7606;DHT22;3844;53.360;9.738;2023-03-25T10:47:07;11.90;81.80
7606;DHT22;3844;53.360;9.738;2023-03-25T10:49:23;11.60;82.90
7606;DHT22;3844;53.360;9.738;2023-03-25T10:51:36;11.30;84.80
7606;DHT22;3844;53.360;9.738;2023-03-25T10:53:39;11.10;86.10
7606;DHT22;3844;53.360;9.738;2023-03-25T10:55:40;10.80;87.10
7606;DHT22;3844;53.360;9.738;2023-03-25T10:57:42;10.40;89.60
7606;DHT22;3844;53.360;9.738;2023-03-25T11:01:56;9.90;93.40
7606;DHT22;3844;53.360;9.738;2023-03-25T11:03:58;9.80;94.10
7606;DHT22;3844;53.360;9.738;2023-03-25T11:06:00;9.60;95.40
7606;DHT22;3844;53.360;9.738;2023-03-25T11:08:02;9.50;95.70
7606;DHT22;3844;53.360;9.738;2023-03-25T11:10:10;9.40;95.70
7606;DHT22;3844;53.360;9.738;2023-03-25T11:12:20;9.30;95.70
7606;DHT22;3844;53.360;9.738;2023-03-25T11:14:23;9.20;95.70
7606;DHT22;3844;53.360;9.738;2023-03-25T11:16:25;9.00;95.70
7606;DHT22;3844;53.360;9.738;2023-03-25T11:18:31;8.90;95.70
7606;DHT22;3844;53.360;9.738;2023-03-25T11:20:50;8.70;95.70
7606;DHT22;3844;53.360;9.738;2023-03-25T11:22:53;8.50;95.70
7606;DHT22;3844;53.360;9.738;2023-03-25T11:25:03;8.40;95.70
7606;DHT22;3844;53.360;9.738;2023-03-25T11:27:07;8.30;95.70
7606;DHT22;3844;53.360;9.738;2023-03-25T11:29:11;8.30;95.70
7606;DHT22;3844;53.360;9.738;2023-03-25T11:31:21;8.40;95.70
7606;DHT22;3844;53.360;9.738;2023-03-25T11:33:24;8.60;95.70
7606;DHT22;3844;53.360;9.738;2023-03-25T11:35:29;8.90;95.70
7606;DHT22;3844;53.360;9.738;2023-03-25T11:37:30;9.10;95.70
7606;DHT22;3844;53.360;9.738;2023-03-25T11:39:40;9.30;95.70
7606;DHT22;3844;53.360;9.738;2023-03-25T11:41:41;9.50;95.70
7606;DHT22;3844;53.360;9.738;2023-03-25T11:43:42;9.80;95.70
7606;DHT22;3844;53.360;9.738;2023-03-25T11:45:47;10.10;95.70
7606;DHT22;3844;53.360;9.738;2023-03-25T11:47:49;10.40;95.70
7606;DHT22;3844;53.360;9.738;2023-03-25T11:49:52;11.00;95.70
7606;DHT22;3844;53.360;9.738;2023-03-25T11:54:27;12.00;93.50
7606;DHT22;3844;53.360;9.738;2023-03-25T11:56:37;12.10;90.00
7606;DHT22;3844;53.360;9.738;2023-03-25T11:58:38;11.90;88.30
7606;DHT22;3844;53.360;9.738;2023-03-25T12:00:45;11.70;90.40
7606;DHT22;3844;53.360;9.738;2023-03-25T12:02:46;11.60;91.00
7606;DHT22;3844;53.360;9.738;2023-03-25T12:05:00;11.70;92.20
7606;DHT22;3844;53.360;9.738;2023-03-25T12:07:07;12.20;92.30
7606;DHT22;3844;53.360;9.738;2023-03-25T12:09:09;12.80;92.70
7606;DHT22;3844;53.360;9.738;2023-03-25T12:12:21;13.30;88.90
7606;DHT22;3844;53.360;9.738;2023-03-25T12:22:12;12.20;89.70
7606;DHT22;3844;53.360;9.738;2023-03-25T12:36:16;10.80;95.70
7606;DHT22;3844;53.360;9.738;2023-03-25T12:43:29;11.10;95.70
7606;DHT22;3844;53.360;9.738;2023-03-25T12:50:59;11.30;95.70
7606;DHT22;3844;53.360;9.738;2023-03-25T13:05:31;10.80;95.70
7606;DHT22;3844;53.360;9.738;2023-03-25T13:07:20;10.70;95.70
7606;DHT22;3844;53.360;9.738;2023-03-25T13:09:36;10.80;95.70
7606;DHT22;3844;53.360;9.738;2023-03-25T13:11:46;10.90;95.70
7606;DHT22;3844;53.360;9.738;2023-03-25T13:13:52;11.20;95.70
7606;DHT22;3844;53.360;9.738;2023-03-25T13:16:12;11.50;95.70
7606;DHT22;3844;53.360;9.738;2023-03-25T13:18:23;11.60;95.70
7606;DHT22;3844;53.360;9.738;2023-03-25T13:20:30;11.90;95.70
7606;DHT22;3844;53.360;9.738;2023-03-25T13:22:37;12.10;95.70
7606;DHT22;3844;53.360;9.738;2023-03-25T13:24:47;12.00;91.90
7606;DHT22;3844;53.360;9.738;2023-03-25T13:26:52;11.90;93.60
7606;DHT22;3844;53.360;9.738;2023-03-25T13:28:56;11.90;92.50
7606;DHT22;3844;53.360;9.738;2023-03-25T13:31:00;12.10;95.60
7606;DHT22;3844;53.360;9.738;2023-03-25T13:33:30;12.40;93.40
7606;DHT22;3844;53.360;9.738;2023-03-25T13:35:59;13.00;91.30
7606;DHT22;3844;53.360;9.738;2023-03-25T13:38:28;13.30;87.40
7606;DHT22;3844;53.360;9.738;2023-03-25T13:40:40;13.10;85.10
7606;DHT22;3844;53.360;9.738;2023-03-25T13:44:46;13.00;88.40
7606;DHT22;3844;53.360;9.738;2023-03-25T13:46:59;12.70;87.80
7606;DHT22;3844;53.360;9.738;2023-03-25T13:52:06;12.70;92.00
7606;DHT22;3844;53.360;9.738;2023-03-25T13:56:31;13.30;84.60
7606;DHT22;3844;53.360;9.738;2023-03-25T14:11:15;11.80;86.60
7606;DHT22;3844;53.360;9.738;2023-03-25T14:13:22;11.60;88.10
7606;DHT22;3844;53.360;9.738;2023-03-25T14:15:35;11.30;88.00
7606;DHT22;3844;53.360;9.738;2023-03-25T14:17:37;11.10;88.40
7606;DHT22;3844;53.360;9.738;2023-03-25T14:19:43;10.80;89.00
7606;DHT22;3844;53.360;9.738;2023-03-25T14:21:49;10.60;91.10
7606;DHT22;3844;53.360;9.738;2023-03-25T14:24:19;10.40;92.70
7606;DHT22;3844;53.360;9.738;2023-03-25T14:26:22;10.20;93.30
7606;DHT22;3844;53.360;9.738;2023-03-25T14:28:38;10.10;95.10
7606;DHT22;3844;53.360;9.738;2023-03-25T14:30:39;9.90;95.70
7606;DHT22;3844;53.360;9.738;2023-03-25T14:32:42;9.80;95.70
7606;DHT22;3844;53.360;9.738;2023-03-25T14:34:45;9.60;95.70
7606;DHT22;3844;53.360;9.738;2023-03-25T14:38:52;9.50;95.70
7606;DHT22;3844;53.360;9.738;2023-03-25T14:40:53;9.70;95.70
7606;DHT22;3844;53.360;9.738;2023-03-25T14:42:59;9.80;95.70
7606;DHT22;3844;53.360;9.738;2023-03-25T14:47:33;9.90;95.70
7606;DHT22;3844;53.360;9.738;2023-03-25T14:52:13;9.90;95.70
7606;DHT22;3844;53.360;9.738;2023-03-25T14:56:18;9.80;95.70
7606;DHT22;3844;53.360;9.738;2023-03-25T14:58:25;9.60;95.70
7606;DHT22;3844;53.360;9.738;2023-03-25T15:00:39;9.50;95.70
7606;DHT22;3844;53.360;9.738;2023-03-25T15:02:49;9.40;95.70
7606;DHT22;3844;53.360;9.738;2023-03-25T15:05:23;9.20;95.70
7606;DHT22;3844;53.360;9.738;2023-03-25T15:07:48;9.20;95.70
7606;DHT22;3844;53.360;9.738;2023-03-25T15:09:52;9.30;95.70
7606;DHT22;3844;53.360;9.738;2023-03-25T15:12:01;9.50;95.70
7606;DHT22;3844;53.360;9.738;2023-03-25T15:14:05;9.50;95.70
7606;DHT22;3844;53.360;9.738;2023-03-25T15:20:36;9.90;95.70
7606;DHT22;3844;53.360;9.738;2023-03-25T15:22:37;9.90;95.70
7606;DHT22;3844;53.360;9.738;2023-03-25T15:24:39;10.10;95.70
7606;DHT22;3844;53.360;9.738;2023-03-25T15:26:42;10.10;95.70
7606;DHT22;3844;53.360;9.738;2023-03-25T15:31:44;9.90;95.70
7606;DHT22;3844;53.360;9.738;2023-03-25T15:35:02;9.70;95.70
7606;DHT22;3844;53.360;9.738;2023-03-25T15:36:57;9.60;95.70
7606;DHT22;3844;53.360;9.738;2023-03-25T15:41:40;9.40;95.70
7606;DHT22;3844;53.360;9.738;2023-03-25T15:44:01;9.40;95.70
7606;DHT22;3844;53.360;9.738;2023-03-25T15:53:45;9.20;95.70
7606;DHT22;3844;53.360;9.738;2023-03-25T15:55:57;9.20;95.70
7606;DHT22;3844;53.360;9.738;2023-03-25T15:58:01;9.10;95.70
7606;DHT22;3844;53.360;9.738;2023-03-25T16:02:31;9.10;95.70
7606;DHT22;3844;53.360;9.738;2023-03-25T16:04:39;9.10;95.70
7606;DHT22;3844;53.360;9.738;2023-03-25T16:06:44;9.10;95.70
7606;DHT22;3844;53.360;9.738;2023-03-25T16:08:47;9.10;95.70
7606;DHT22;3844;53.360;9.738;2023-03-25T16:10:48;9.10;95.70
7606;DHT22;3844;53.360;9.738;2023-03-25T16:12:49;9.10;95.70
7606;DHT22;3844;53.360;9.738;2023-03-25T16:14:51;9.10;95.70
7606;DHT22;3844;53.360;9.738;2023-03-25T16:16:54;9.10;95.70
7606;DHT22;3844;53.360;9.738;2023-03-25T16:18:55;9.10;95.70
7606;DHT22;3844;53.360;9.738;2023-03-25T16:20:59;9.00;95.70
7606;DHT22;3844;53.360;9.738;2023-03-25T16:23:03;9.00;95.70
7606;DHT22;3844;53.360;9.738;2023-03-25T16:25:13;8.90;95.70
7606;DHT22;3844;53.360;9.738;2023-03-25T16:27:23;8.90;95.70
7606;DHT22;3844;53.360;9.738;2023-03-25T16:29:24;8.80;95.70
7606;DHT22;3844;53.360;9.738;2023-03-25T16:31:30;8.80;95.70
7606;DHT22;3844;53.360;9.738;2023-03-25T16:33:37;8.80;95.70
7606;DHT22;3844;53.360;9.738;2023-03-25T16:35:40;8.70;95.70
7606;DHT22;3844;53.360;9.738;2023-03-25T16:37:42;8.70;95.70
7606;DHT22;3844;53.360;9.738;2023-03-25T16:39:43;8.60;95.70
7606;DHT22;3844;53.360;9.738;2023-03-25T16:42:03;8.60;95.70
7606;DHT22;3844;53.360;9.738;2023-03-25T16:44:12;8.70;95.70
7606;DHT22;3844;53.360;9.738;2023-03-25T16:46:16;8.70;95.70
7606;DHT22;3844;53.360;9.738;2023-03-25T16:48:54;8.60;95.70